createdAt,value
2023-04-26T00:01:27.522Z,5.05
2023-04-26T00:03:56.346Z,5.88
2023-04-26T00:06:24.284Z,8.55
2023-04-26T00:08:51.999Z,7.07
2023-04-26T00:11:21.371Z,4.68
2023-04-26T00:13:48.992Z,7.20
2023-04-26T00:16:18.366Z,4.72
2023-04-26T00:18:46.365Z,6.15
2023-04-26T00:21:14.086Z,9.23
2023-04-26T00:23:42.123Z,6.50
2023-04-26T00:26:09.808Z,6.25
2023-04-26T00:28:38.876Z,6.07
2023-04-26T00:31:07.295Z,7.15
2023-04-26T00:33:34.924Z,3.93
2023-04-26T00:36:02.484Z,6.82
2023-04-26T00:38:30.031Z,3.53
2023-04-26T00:40:57.701Z,5.50
2023-04-26T00:43:25.445Z,7.95
2023-04-26T00:45:54.745Z,4.97
2023-04-26T00:48:22.635Z,7.40
2023-04-26T00:50:50.341Z,6.28
2023-04-26T00:53:19.167Z,5.22
2023-04-26T00:55:48.043Z,4.40
2023-04-26T00:58:15.973Z,6.87
2023-04-26T01:00:43.475Z,4.78
2023-04-26T01:03:12.968Z,6.25
2023-04-26T01:05:40.947Z,4.68
2023-04-26T01:08:09.080Z,7.70
2023-04-26T01:10:37.147Z,6.93
2023-04-26T01:13:05.517Z,7.75
2023-04-26T01:15:33.991Z,5.05
2023-04-26T01:18:02.017Z,6.45
2023-04-26T01:20:31.215Z,8.30
2023-04-26T01:23:00.611Z,5.20
2023-04-26T01:25:28.886Z,14.63
2023-04-26T01:27:56.590Z,5.28
2023-04-26T01:30:24.440Z,4.97
2023-04-26T01:32:52.349Z,8.63
2023-04-26T01:35:20.903Z,9.67
2023-04-26T01:37:48.658Z,11.52
2023-04-26T01:40:17.941Z,7.68
2023-04-26T01:42:45.736Z,7.57
2023-04-26T01:45:13.457Z,10.95
2023-04-26T01:47:41.390Z,5.97
2023-04-26T01:50:10.869Z,6.10
2023-04-26T01:52:38.614Z,8.85
2023-04-26T01:55:07.495Z,5.68
2023-04-26T01:57:36.912Z,6.03
2023-04-26T02:00:05.929Z,4.37
2023-04-26T02:02:33.840Z,5.80
2023-04-26T02:05:01.719Z,6.60
2023-04-26T02:07:29.439Z,6.63
2023-04-26T02:09:57.225Z,6.28
2023-04-26T02:12:24.965Z,4.43
2023-04-26T02:14:54.028Z,8.95
2023-04-26T02:17:22.718Z,7.60
2023-04-26T02:19:50.675Z,7.22
2023-04-26T02:22:18.553Z,6.55
2023-04-26T02:24:46.460Z,6.03
2023-04-26T02:27:13.971Z,4.45
2023-04-26T02:29:44.832Z,8.73
2023-04-26T02:32:14.579Z,6.20
2023-04-26T02:34:43.069Z,4.78
2023-04-26T02:37:10.888Z,7.20
2023-04-26T02:39:38.593Z,7.05
2023-04-26T02:42:09.988Z,4.50
2023-04-26T02:44:39.815Z,7.20
2023-04-26T02:47:07.933Z,8.75
2023-04-26T02:49:37.116Z,6.50
2023-04-26T02:52:05.149Z,9.10
2023-04-26T02:54:32.771Z,6.25
2023-04-26T02:57:01.022Z,8.15
2023-04-26T02:59:28.624Z,6.72
2023-04-26T03:01:56.266Z,7.53
2023-04-26T03:04:23.907Z,5.32
2023-04-26T03:06:53.038Z,4.20
2023-04-26T03:09:20.579Z,5.30
2023-04-26T03:11:50.121Z,5.75
2023-04-26T03:14:18.000Z,5.70
2023-04-26T03:16:45.871Z,4.97
2023-04-26T03:19:13.480Z,6.95
2023-04-26T03:21:41.625Z,6.40
2023-04-26T03:24:11.599Z,7.13
2023-04-26T03:26:39.180Z,6.37
2023-04-26T03:29:06.922Z,4.15
2023-04-26T03:31:34.507Z,4.38
2023-04-26T03:34:02.096Z,4.68
2023-04-26T03:36:29.740Z,5.80
2023-04-26T03:38:57.353Z,3.33
2023-04-26T03:41:26.511Z,3.33
2023-04-26T03:43:54.194Z,3.55
2023-04-26T03:46:21.886Z,5.30
2023-04-26T03:48:49.720Z,2.85
2023-04-26T03:51:17.653Z,7.53
2023-04-26T03:53:46.788Z,7.25
2023-04-26T03:56:14.409Z,7.35
2023-04-26T03:58:43.848Z,7.38
2023-04-26T04:01:11.439Z,6.03
2023-04-26T04:03:41.273Z,6.57
2023-04-26T04:06:09.575Z,5.32
2023-04-26T04:08:37.242Z,4.13
2023-04-26T04:11:04.941Z,6.30
2023-04-26T04:13:32.545Z,8.43
2023-04-26T04:16:01.778Z,4.17
2023-04-26T04:18:29.441Z,8.07
2023-04-26T04:20:56.946Z,6.43
2023-04-26T04:23:24.530Z,8.27
2023-04-26T04:25:52.300Z,8.77
2023-04-26T04:28:19.913Z,6.40
2023-04-26T04:30:48.120Z,11.95
2023-04-26T04:33:17.911Z,7.03
2023-04-26T04:35:47.522Z,10.50
2023-04-26T04:38:15.430Z,10.70
2023-04-26T04:40:43.560Z,8.30
2023-04-26T04:43:12.487Z,9.43
2023-04-26T04:45:40.370Z,6.22
2023-04-26T04:48:09.298Z,5.90
2023-04-26T04:50:38.806Z,7.40
2023-04-26T04:53:06.669Z,7.87
2023-04-26T04:55:34.585Z,9.15
2023-04-26T04:58:03.675Z,8.40
2023-04-26T05:00:31.614Z,7.15
2023-04-26T05:02:59.705Z,6.22
2023-04-26T05:05:28.185Z,6.03
2023-04-26T05:07:57.322Z,7.50
2023-04-26T05:10:25.175Z,6.68
2023-04-26T05:12:52.800Z,6.45
2023-04-26T05:15:20.806Z,4.95
2023-04-26T05:17:48.549Z,6.10
2023-04-26T05:20:16.812Z,6.47
2023-04-26T05:22:44.689Z,4.57
2023-04-26T05:25:14.777Z,15.18
2023-04-26T05:27:42.783Z,7.10
2023-04-26T05:30:11.719Z,5.27
2023-04-26T05:32:39.641Z,6.07
2023-04-26T05:35:08.870Z,9.88
2023-04-26T05:37:36.606Z,7.00
2023-04-26T05:40:05.751Z,6.30
2023-04-26T05:42:34.906Z,5.10
2023-04-26T05:45:02.848Z,5.63
2023-04-26T05:47:30.670Z,5.97
2023-04-26T05:49:58.443Z,4.50
2023-04-26T05:52:26.109Z,4.03
2023-04-26T05:54:53.828Z,7.97
2023-04-26T05:57:21.563Z,11.88
2023-04-26T05:59:50.711Z,9.02
2023-04-26T06:02:18.582Z,8.70
2023-04-26T06:04:46.915Z,8.43
2023-04-26T06:07:14.735Z,11.43
2023-04-26T06:09:42.687Z,11.68
2023-04-26T06:12:10.468Z,10.82
2023-04-26T06:14:38.130Z,8.05
2023-04-26T06:17:07.264Z,12.32
2023-04-26T06:19:35.119Z,11.80
2023-04-26T06:22:02.949Z,13.85
2023-04-26T06:24:31.584Z,11.80
2023-04-26T06:26:59.272Z,11.88
2023-04-26T06:29:26.990Z,12.85
2023-04-26T06:31:55.001Z,10.50
2023-04-26T06:34:24.206Z,11.70
2023-04-26T06:36:52.196Z,13.38
2023-04-26T06:39:20.132Z,10.63
2023-04-26T06:41:47.814Z,10.15
2023-04-26T06:44:15.592Z,15.83
2023-04-26T06:46:43.569Z,12.00
2023-04-26T06:49:11.541Z,10.00
2023-04-26T06:51:41.113Z,9.57
2023-04-26T06:54:09.117Z,12.52
2023-04-26T06:56:37.187Z,10.17
2023-04-26T06:59:06.307Z,15.13
2023-04-26T07:01:35.071Z,9.85
2023-04-26T07:04:04.470Z,9.27
2023-04-26T07:06:32.933Z,8.23
2023-04-26T07:09:02.806Z,12.20
2023-04-26T07:11:30.790Z,15.13
2023-04-26T07:13:58.919Z,13.43
2023-04-26T07:16:27.693Z,12.35
2023-04-26T07:18:58.414Z,13.05
2023-04-26T07:21:26.834Z,9.43
2023-04-26T07:23:56.955Z,9.13
2023-04-26T07:26:26.924Z,9.88
2023-04-26T07:28:55.521Z,12.20
2023-04-26T07:31:23.471Z,11.13
2023-04-26T07:33:51.450Z,11.00
2023-04-26T07:36:19.451Z,9.57
2023-04-26T07:38:47.198Z,8.40
2023-04-26T07:41:16.412Z,13.48
2023-04-26T07:43:45.618Z,11.00
2023-04-26T07:46:13.290Z,9.70
2023-04-26T07:48:40.974Z,9.10
2023-04-26T07:51:09.495Z,10.73
2023-04-26T07:53:37.193Z,8.38
2023-04-26T07:56:07.742Z,13.23
2023-04-26T07:58:36.100Z,13.43
2023-04-26T08:01:05.375Z,12.43
2023-04-26T08:03:33.417Z,11.15
2023-04-26T08:06:01.858Z,10.38
2023-04-26T08:08:29.947Z,11.73
2023-04-26T08:10:57.658Z,8.63
2023-04-26T08:13:28.589Z,7.60
2023-04-26T08:15:57.024Z,6.90
2023-04-26T08:18:26.192Z,10.45
2023-04-26T08:20:55.169Z,10.93
2023-04-26T08:23:23.656Z,8.20
2023-04-26T08:25:51.524Z,9.70
2023-04-26T08:28:19.315Z,10.00
2023-04-26T08:30:47.076Z,6.70
2023-04-26T08:33:14.882Z,6.68
2023-04-26T08:35:44.020Z,4.73
2023-04-26T08:38:11.681Z,8.73
2023-04-26T08:40:39.673Z,8.77
2023-04-26T08:43:09.947Z,10.57
2023-04-26T08:45:41.982Z,5.97
2023-04-26T08:48:15.126Z,5.60
2023-04-26T08:50:46.716Z,5.93
2023-04-26T08:53:18.025Z,7.05
2023-04-26T08:55:50.623Z,5.32
2023-04-26T08:58:18.919Z,6.75
2023-04-26T09:00:47.215Z,8.20
2023-04-26T09:03:16.404Z,6.05
2023-04-26T09:05:46.669Z,5.15
2023-04-26T09:08:17.686Z,5.57
2023-04-26T09:10:46.036Z,5.10
2023-04-26T09:13:14.607Z,4.83
2023-04-26T09:15:42.779Z,4.80
2023-04-26T09:18:20.704Z,7.00
2023-04-26T09:21:04.143Z,5.53
2023-04-26T09:23:32.251Z,4.57
2023-04-26T09:26:18.880Z,4.97
2023-04-26T09:28:47.804Z,5.30
2023-04-26T09:31:40.518Z,7.25
2023-04-26T09:34:09.164Z,4.20
2023-04-26T09:36:50.146Z,5.22
2023-04-26T09:39:33.060Z,4.80
2023-04-26T09:42:00.867Z,9.18
2023-04-26T09:44:31.128Z,6.15
2023-04-26T09:47:00.737Z,6.28
2023-04-26T09:49:28.851Z,7.15
2023-04-26T09:52:06.115Z,8.33
2023-04-26T09:54:41.594Z,5.78
2023-04-26T09:57:09.411Z,4.20
2023-04-26T09:59:44.545Z,6.15
2023-04-26T10:02:17.863Z,4.65
2023-04-26T10:04:47.731Z,6.93
2023-04-26T10:07:18.408Z,7.40
2023-04-26T10:09:47.256Z,4.20
2023-04-26T10:12:16.366Z,8.63
2023-04-26T10:14:45.288Z,7.00
2023-04-26T10:17:13.406Z,5.70
2023-04-26T10:19:44.879Z,3.20
2023-04-26T10:22:20.911Z,4.07
2023-04-26T10:24:50.875Z,7.38
2023-04-26T10:27:39.294Z,5.55
2023-04-26T10:30:17.715Z,4.63
2023-04-26T10:33:16.643Z,5.65
2023-04-26T10:36:10.794Z,7.35
2023-04-26T10:38:45.197Z,5.70
2023-04-26T10:41:46.642Z,4.03
2023-04-26T10:44:46.262Z,7.83
2023-04-26T10:50:33.844Z,4.32
2023-04-26T10:53:20.057Z,4.32
2023-04-26T10:55:51.027Z,3.65
2023-04-26T10:58:42.672Z,5.83
2023-04-26T11:01:18.205Z,3.92
2023-04-26T11:04:09.982Z,6.60
2023-04-26T11:07:07.733Z,4.75
2023-04-26T11:09:42.284Z,4.65
2023-04-26T11:12:33.758Z,6.43
2023-04-26T11:15:06.187Z,6.40
2023-04-26T11:17:48.589Z,7.47
2023-04-26T11:20:38.487Z,4.65
2023-04-26T11:23:43.352Z,3.42
2023-04-26T11:26:14.574Z,4.77
2023-04-26T11:28:54.416Z,4.53
2023-04-26T11:31:35.051Z,4.22
2023-04-26T11:34:07.707Z,6.50
2023-04-26T11:37:04.430Z,4.38
2023-04-26T11:39:33.664Z,4.53
2023-04-26T11:42:15.514Z,3.20
2023-04-26T11:44:47.694Z,5.47
2023-04-26T11:47:34.018Z,5.47
2023-04-26T11:50:10.754Z,3.92
2023-04-26T11:52:45.049Z,5.87
2023-04-26T11:55:49.890Z,5.25
2023-04-26T11:58:21.448Z,3.42
2023-04-26T12:01:00.690Z,5.25
2023-04-26T12:03:35.622Z,3.53
2023-04-26T12:06:07.983Z,4.37
2023-04-26T12:08:38.994Z,5.32
2023-04-26T12:11:12.681Z,4.20
2023-04-26T12:13:44.142Z,4.93
2023-04-26T12:16:25.466Z,5.88
2023-04-26T12:18:58.046Z,2.40
2023-04-26T12:21:31.337Z,3.67
2023-04-26T12:24:06.648Z,4.28
2023-04-26T12:26:57.263Z,2.65
2023-04-26T12:29:29.452Z,4.88
2023-04-26T12:31:57.672Z,4.80
2023-04-26T12:34:25.801Z,7.15
2023-04-26T12:36:53.823Z,3.13
2023-04-26T12:39:24.717Z,5.28
2023-04-26T12:41:53.903Z,7.30
2023-04-26T12:44:22.705Z,5.60
2023-04-26T12:46:54.250Z,6.60
2023-04-26T12:49:22.558Z,3.15
2023-04-26T12:51:50.524Z,9.90
2023-04-26T12:54:18.354Z,3.78
2023-04-26T12:56:50.205Z,5.57
2023-04-26T12:59:18.182Z,4.97
2023-04-26T13:01:46.427Z,2.05
2023-04-26T13:04:15.258Z,4.07
2023-04-26T13:06:43.291Z,2.10
2023-04-26T13:09:13.347Z,4.77
2023-04-26T13:11:41.737Z,9.85
2023-04-26T13:14:11.240Z,3.08
2023-04-26T13:16:42.507Z,2.92
2023-04-26T13:19:10.509Z,3.10
2023-04-26T13:21:38.628Z,10.93
2023-04-26T13:24:07.022Z,3.55
2023-04-26T13:26:34.801Z,2.70
2023-04-26T13:29:04.159Z,4.07
2023-04-26T13:31:33.551Z,7.05
2023-04-26T13:34:03.229Z,8.90
2023-04-26T13:36:32.138Z,7.07
2023-04-26T13:39:00.155Z,8.88
2023-04-26T13:41:29.347Z,4.75
2023-04-26T13:43:57.104Z,4.32
2023-04-26T13:46:25.128Z,6.90
2023-04-26T13:48:57.662Z,4.03
2023-04-26T13:51:27.066Z,8.57
2023-04-26T13:53:55.319Z,4.32
2023-04-26T13:56:25.712Z,5.88
2023-04-26T13:58:57.561Z,2.53
2023-04-26T14:01:25.608Z,3.88
2023-04-26T14:03:56.059Z,5.55
2023-04-26T14:06:24.357Z,10.30
2023-04-26T14:08:52.056Z,5.38
2023-04-26T14:11:19.991Z,5.30
2023-04-26T14:13:47.955Z,8.55
2023-04-26T14:16:15.688Z,9.35
2023-04-26T14:18:45.310Z,10.68
2023-04-26T14:21:14.729Z,4.82
2023-04-26T14:23:42.514Z,5.20
2023-04-26T14:26:10.385Z,7.88
2023-04-26T14:28:38.196Z,7.20
2023-04-26T14:31:09.574Z,6.50
2023-04-26T14:33:37.400Z,8.55
2023-04-26T14:36:05.798Z,4.50
2023-04-26T14:38:35.199Z,7.72
2023-04-26T14:41:03.069Z,6.90
2023-04-26T14:43:30.950Z,7.65
2023-04-26T14:45:58.986Z,7.68
2023-04-26T14:48:27.374Z,6.50
2023-04-26T14:50:59.422Z,7.35
2023-04-26T14:53:28.005Z,6.85
2023-04-26T14:55:58.470Z,4.82
2023-04-26T14:58:27.356Z,5.68
2023-04-26T15:00:55.631Z,7.03
2023-04-26T15:03:23.856Z,7.05
2023-04-26T15:05:51.734Z,4.07
2023-04-26T15:08:20.397Z,9.40
2023-04-26T15:10:48.411Z,6.60
2023-04-26T15:13:18.150Z,5.87
2023-04-26T15:15:46.420Z,6.45
2023-04-26T15:18:14.349Z,8.40
2023-04-26T15:20:42.510Z,6.75
2023-04-26T15:23:10.914Z,4.47
2023-04-26T15:25:38.851Z,5.10
2023-04-26T15:28:07.096Z,9.85
2023-04-26T15:30:36.500Z,5.47
2023-04-26T15:33:06.770Z,8.88
2023-04-26T15:35:35.473Z,9.60
2023-04-26T15:38:07.226Z,3.37
2023-04-26T15:40:36.845Z,10.45
2023-04-26T15:43:06.347Z,9.05
2023-04-26T15:45:37.675Z,7.72
2023-04-26T15:48:06.626Z,7.57
2023-04-26T15:50:34.560Z,4.90
2023-04-26T15:53:02.490Z,7.28
2023-04-26T15:55:33.440Z,10.45
2023-04-26T15:58:01.320Z,8.80
2023-04-26T16:00:30.281Z,7.25
2023-04-26T16:03:00.537Z,6.37
2023-04-26T16:05:29.045Z,12.63
2023-04-26T16:07:57.059Z,6.20
2023-04-26T16:10:25.068Z,9.70
2023-04-26T16:12:52.911Z,8.80
2023-04-26T16:15:20.810Z,9.70
2023-04-26T16:17:48.772Z,5.22
2023-04-26T16:20:21.062Z,10.05
2023-04-26T16:22:49.979Z,7.55
2023-04-26T16:25:18.090Z,10.88
2023-04-26T16:27:46.153Z,7.93
2023-04-26T16:30:20.605Z,8.45
2023-04-26T16:32:49.253Z,14.15
2023-04-26T16:35:24.078Z,8.93
2023-04-26T16:37:57.411Z,12.15
2023-04-26T16:40:26.903Z,9.70
2023-04-26T16:42:55.065Z,9.90
2023-04-26T16:45:26.515Z,7.30
2023-04-26T16:47:55.254Z,10.45
2023-04-26T16:50:25.085Z,9.73
2023-04-26T16:52:53.096Z,7.97
2023-04-26T16:55:21.026Z,10.05
2023-04-26T16:57:49.048Z,10.32
2023-04-26T17:00:21.315Z,8.90
2023-04-26T17:02:50.232Z,7.72
2023-04-26T17:05:18.633Z,13.70
2023-04-26T17:07:47.895Z,9.32
2023-04-26T17:10:15.704Z,8.45
2023-04-26T17:12:43.978Z,9.25
2023-04-26T17:15:12.985Z,8.40
2023-04-26T17:17:41.202Z,4.67
2023-04-26T17:20:11.234Z,5.32
2023-04-26T17:22:39.448Z,7.03
2023-04-26T17:25:10.144Z,7.47
2023-04-26T17:27:37.985Z,8.68
2023-04-26T17:30:07.231Z,7.97
2023-04-26T17:32:35.299Z,7.00
2023-04-26T17:35:04.123Z,5.35
2023-04-26T17:37:32.009Z,6.93
2023-04-26T17:39:59.668Z,6.07
2023-04-26T17:42:29.493Z,4.80
2023-04-26T17:44:57.296Z,8.07
2023-04-26T17:47:25.090Z,10.00
2023-04-26T17:49:53.010Z,7.82
2023-04-26T17:52:20.818Z,7.43
2023-04-26T17:54:48.466Z,8.80
2023-04-26T17:57:17.823Z,7.57
2023-04-26T17:59:47.092Z,9.55
2023-04-26T18:02:14.885Z,9.43
2023-04-26T18:04:42.980Z,9.40
2023-04-26T18:07:12.213Z,7.73
2023-04-26T18:09:56.090Z,3.67
2023-04-26T18:12:23.633Z,7.53
2023-04-26T18:14:51.517Z,8.63
2023-04-26T18:17:19.610Z,5.00
2023-04-26T18:19:47.759Z,7.78
2023-04-26T18:22:15.514Z,8.52
2023-04-26T18:24:43.333Z,13.07
2023-04-26T18:27:14.129Z,12.27
2023-04-26T18:29:42.214Z,10.10
2023-04-26T18:32:10.079Z,9.05
2023-04-26T18:34:39.950Z,3.65
2023-04-26T18:37:07.793Z,6.68
2023-04-26T18:39:35.653Z,3.22
2023-04-26T18:42:03.827Z,7.53
2023-04-26T18:44:33.196Z,11.15
2023-04-26T18:47:00.915Z,7.78
2023-04-26T18:49:28.925Z,6.40
2023-04-26T18:51:57.327Z,12.95
2023-04-26T18:54:26.269Z,8.45
2023-04-26T18:56:54.126Z,7.43
2023-04-26T18:59:21.696Z,8.70
2023-04-26T19:01:50.901Z,8.30
2023-04-26T19:04:18.877Z,6.72
2023-04-26T19:06:46.621Z,8.02
2023-04-26T19:09:15.197Z,8.68
2023-04-26T19:11:42.859Z,8.75
2023-04-26T19:14:10.493Z,7.80
2023-04-26T19:16:41.121Z,10.40
2023-04-26T19:19:13.797Z,11.48
2023-04-26T19:21:41.522Z,9.90
2023-04-26T19:24:09.246Z,9.77
2023-04-26T19:26:38.202Z,14.05
2023-04-26T19:29:06.999Z,14.48
2023-04-26T19:31:37.729Z,10.00
2023-04-26T19:34:05.390Z,12.93
2023-04-26T19:36:38.449Z,14.43
2023-04-26T19:39:16.468Z,10.85
2023-04-26T19:41:46.367Z,11.60
2023-04-26T19:44:14.159Z,8.63
2023-04-26T19:46:42.562Z,12.30
2023-04-26T19:49:10.312Z,12.27
2023-04-26T19:51:41.416Z,13.88
2023-04-26T19:54:09.173Z,8.63
2023-04-26T19:56:38.350Z,11.57
2023-04-26T19:59:06.290Z,8.82
2023-04-26T20:01:39.294Z,9.70
2023-04-26T20:04:08.241Z,8.80
2023-04-26T20:06:37.053Z,13.05
2023-04-26T20:09:06.994Z,12.27
2023-04-26T20:11:35.074Z,25.05
2023-04-26T20:14:02.803Z,19.92
2023-04-26T20:16:30.493Z,17.83
2023-04-26T20:18:58.204Z,15.50
2023-04-26T20:21:31.515Z,13.98
2023-04-26T20:24:02.753Z,12.18
2023-04-26T20:26:31.810Z,13.70
2023-04-26T20:29:02.010Z,14.20
2023-04-26T20:31:29.821Z,14.60
2023-04-26T20:33:59.364Z,8.90
2023-04-26T20:36:28.479Z,11.27
2023-04-26T20:38:56.545Z,10.68
2023-04-26T20:41:24.313Z,9.85
2023-04-26T20:43:53.815Z,14.02
2023-04-26T20:46:23.689Z,10.82
2023-04-26T20:48:51.534Z,11.45
2023-04-26T20:51:20.392Z,10.60
2023-04-26T20:53:48.074Z,12.80
2023-04-26T20:56:16.150Z,10.43
2023-04-26T20:58:43.746Z,10.52
2023-04-26T21:01:12.929Z,10.82
2023-04-26T21:03:40.662Z,14.05
2023-04-26T21:06:08.512Z,9.52
2023-04-26T21:08:37.094Z,14.93
2023-04-26T21:11:04.872Z,12.60
2023-04-26T21:13:32.643Z,14.90
2023-04-26T21:16:00.337Z,12.85
2023-04-26T21:18:29.509Z,15.23
2023-04-26T21:20:57.137Z,12.48
2023-04-26T21:23:24.924Z,15.57
2023-04-26T21:25:52.654Z,9.68
2023-04-26T21:28:20.380Z,10.13
2023-04-26T21:30:48.211Z,14.32
2023-04-26T21:33:24.413Z,13.30
2023-04-26T21:35:59.650Z,12.18
2023-04-26T21:38:31.457Z,9.20
2023-04-26T21:41:01.204Z,13.27
2023-04-26T21:43:32.318Z,7.82
2023-04-26T21:46:04.090Z,13.45
2023-04-26T21:48:35.888Z,12.07
2023-04-26T21:51:14.119Z,11.13
2023-04-26T21:53:55.578Z,13.07
2023-04-26T21:56:25.211Z,17.50
2023-04-26T21:58:52.956Z,10.55
2023-04-26T22:01:21.060Z,15.48
2023-04-26T22:03:49.473Z,13.25
2023-04-26T22:06:19.208Z,11.45
2023-04-26T22:08:47.272Z,12.68
2023-04-26T22:11:15.843Z,12.05
2023-04-26T22:13:43.742Z,11.75
2023-04-26T22:16:15.980Z,9.68
2023-04-26T22:18:48.624Z,12.77
2023-04-26T22:21:16.351Z,11.07
2023-04-26T22:23:48.050Z,12.63
2023-04-26T22:26:15.883Z,12.05
2023-04-26T22:28:43.574Z,9.13
2023-04-26T22:31:11.409Z,11.55
2023-04-26T22:33:39.009Z,9.43
2023-04-26T22:36:07.224Z,13.60
2023-04-26T22:38:34.860Z,12.38
2023-04-26T22:41:04.235Z,13.77
2023-04-26T22:43:31.949Z,13.15
2023-04-26T22:45:59.700Z,13.05
2023-04-26T22:48:27.329Z,11.68
2023-04-26T22:50:55.025Z,14.05
2023-04-26T22:53:23.063Z,11.35
2023-04-26T22:55:51.878Z,11.30
2023-04-26T22:58:21.222Z,13.63
2023-04-26T23:00:48.927Z,12.10
2023-04-26T23:03:16.924Z,11.52
2023-04-26T23:05:46.750Z,21.77
2023-04-26T23:08:14.860Z,9.70
2023-04-26T23:10:43.085Z,10.85
2023-04-26T23:13:12.190Z,13.70
2023-04-26T23:15:41.983Z,13.65
2023-04-26T23:18:21.704Z,13.88
2023-04-26T23:20:53.879Z,9.35
2023-04-26T23:23:22.043Z,9.32
2023-04-26T23:25:50.034Z,9.77
2023-04-26T23:28:17.929Z,10.38
2023-04-26T23:30:47.331Z,9.75
2023-04-26T23:33:15.149Z,10.75
2023-04-26T23:35:42.998Z,13.65
2023-04-26T23:38:11.404Z,10.05
2023-04-26T23:40:39.817Z,9.13
2023-04-26T23:43:13.123Z,11.25
2023-04-26T23:45:47.073Z,12.07
2023-04-26T23:48:18.035Z,10.95
2023-04-26T23:50:46.283Z,9.13
2023-04-26T23:53:14.751Z,9.93
2023-04-26T23:55:43.473Z,7.82
2023-04-26T23:58:11.282Z,12.20
